Latest 15 Minute Observations

23 Stations

15 Minute Data | America/Los_Angeles
as of 8/12/20 7:24 PM PDT
Station Date Time Temp (°F) RH (%) Dew Pt (°F) Wet Bulb (°F) Canopy Temp (°F) Wind Dir (°) Wind Spd (mph) Wind Gust (mph) Latest Rain (In) Daily Rain (In) Daily Min Temp (°F) Daily Max Temp (°F) Daily Leaf Wet Hrs (hrs)
Ukiah-SE (Ruddick) 8/12/20 1915 87.4   3.8 14   19 31.9   19.3 55.3   6.6 87.7   3.4 N | 357 10.8 15.2 0.00 0.00 50.9 97.1 5.6
Upper Lake 8/12/20 1915 86.2   0.2 16   11 34.7   13.4 55.8   5.0 - W | 276 8.4 15.0 0.00 0.00 52.6 96.0 0.0
Scotts Valley 8/12/20 1915 86.7   2.6 17   15 36.0   14.7 56.3   5.5 - W | 264 2.0 6.5 0.00 0.00 46.7 96.4 0.0
Kelseyville 8/12/20 1915 85.3   3.9 25   21 45.4   13.3 59.5   6.5 - WSW | 245 4.6 9.6 0.00 0.00 50.1 95.2 0.0
Kelseyville (Clark Drive) 8/12/20 1915 88.1   4.6 - - - - - - - - - 50.8 97.9 -
Kelseyville Remote 8/12/20 1915 88.3   4.8 17   21 37.7   17.1 57.2   6.7 - - - - - - 52.0 97.2 -
Kelseyville-South 8/12/20 1915 87.0   4.9 14   25 31.4   23.3 55.1   8.5 - WSW | 253 7.3 13.2 0.00 0.00 51.5 95.1 0.0
Bell Hill-West 8/12/20 1900 87.2   5.0 18   23 38.9   17.3 57.4   7.1 - WSW | 239 1.1 9.5 0.00 0.00 53.2 94.3 -
Wight Way 8/12/20 1915 87.5   2.0 22   17 44.4   13.9 59.5   6.8 - W | 272 4.0 9.9 0.00 0.00 47.8 98.1 -
High Valley Ridgeline (Brassfield) 7/29/20 1430 91.0   3.4 13   2 34.1   1.6 42.4   1.7 - SW | 229 8.8 13.2 0.00 0.00 69.4 92.0 -
Ridgeline Top (Brassfield) 7/29/20 1430 93.1   3.2 - - - - - - - - - 68.0 94.5 -
Ridgeline Low (Brassfield) 7/29/20 1430 90.9   3.7 - - - - - - - - - 68.2 92.4 -
High Valley Winery 7/29/20 1430 93.0   3.9 13   1 34.2   0.1 34.2   0.1 - SW | 222 9.1 14.8 0.00 0.00 50.7 93.3 -
Red Hills-East 8/12/20 1915 83.2   2.2 31   10 49.6   5.6 61.1   2.7 - WSW | 242 3.8 7.7 0.00 0.00 53.4 93.9 -
Red Hills (Beckstoffer) 8/12/20 1915 87.8   4.5 26   13 49.1   7.4 61.6   3.3 - - - - - - 48.5 95.5 -
Middletown (Diamond D) 8/12/20 1915 87.5   3.6 26   10 48.1   5.9 61.1   2.4 - SW | 214 6.3 10.3 0.00 0.00 50.9 95.3 -
Middletown-West (Bella Vista) 8/12/20 1915 86.4   4.5 26   11 47.8   5.4 - - - - - 0.00 0.00 48.9 94.2 -
Middletown-South 8/12/20 1915 86.3   3.3 24   6 45.5   3.3 59.8   0.9 - SW | 224 5.4 13.8 0.00 0.00 51.0 93.2 -
Lower Bohn 8/12/20 1845 92.9   0.5 16   8 40.5   9.9 59.0   3.9 - SW | 222 4.4 8.0 0.00 0.00 48.3 96.6 -
Upper Bohn-North 8/12/20 1915 88.6   2.6 17   14 37.5   13.8 57.2   5.2 - S | 180 3.1 5.7 0.00 0.00 53.7 97.8 -
Upper Bohn-South 8/12/20 1915 93.7   4.0 23   6 50.3   3.2 63.0   1.1 - SSW | 210 0.8 4.4 0.00 0.00 54.8 98.3 -
Morgan Valley 8/12/20 1915 83.8   0.7 14   11 29.9   13.7 53.9   4.4 - SW | 220 8.6 11.0 0.00 0.00 69.9 88.1 -
Cow Mountain 8/12/20 1915 73.9   1.2 - - - - W | 273 14.7 21.5 0.00 0.00 67.9 81.9 -
Max     93.7 31 50.3 63.0 - - 14.7 21.5 0.00 0.00 69.9 98.3 5.6
Avg     86.7 20 41.1 58.3 - - 5.7 10.7 0.00 - - - -
Min     73.9 14 29.9 53.9 - - 0.8 4.4 0.00 0.00 46.7 81.9 0.0